M I D A S
Marine Information and Data Acquisition System
Tripno 128 of the Zeeleeuw from 2001-05-10 09:20:00 to 2001-05-10 13:55:00
Back to CruiseResearch ActivitiesStationsMapUnderway DataData graphs

EquipmentUnitsComment
TimeDGPSUTC
LatitudeDGPSDM.mWGS84
LongitudeDGPSDM.mWGS84
TemperatureSBE03/SBE38deg celciusITS90
ConductivitySBE21S/mITS90
SalinitySBE21 Practical Salinity Units
ChlorophylAChelsea fluorimeterg/lCalibrated in Aceton
Missing or incorrect values are displayed as -999
Sea surface data collected by the RV Zeeleeuw from 2001-05-10 09:20:00 to 2001-05-10 13:55:00
Time Latitude Longitude Temperature Conductivity Salinity ChlorophylA
2001-05-10 09:31:25 51°9.694 2°39.748 -999 -999 -999  
2001-05-10 09:32:25 51°9.697 2°39.78 -999 -999 -999  
2001-05-10 09:33:25 51°9.707 2°39.826 -999 -999 -999  
2001-05-10 09:34:25 51°9.717 2°39.882 -999 -999 -999  
2001-05-10 09:35:25 51°9.728 2°39.942 -999 -999 -999  
2001-05-10 09:36:25 51°9.739 2°40 -999 -999 -999  
2001-05-10 09:37:25 51°9.749 2°40.054 -999 -999 -999  
2001-05-10 09:38:25 51°9.76 2°40.108 -999 -999 -999  
2001-05-10 10:31:28 51°11.64 2°45.79 -999 -999 -999  
2001-05-10 10:35:05 51°11.847 2°46.587 -999 -999 -999  
2001-05-10 10:36:05 51°11.902 2°46.811 -999 -999 -999  
2001-05-10 10:37:05 51°11.955 2°47.036 -999 -999 -999  
2001-05-10 10:38:05 51°12.015 2°47.257 -999 -999 -999  
2001-05-10 10:39:05 51°12.085 2°47.471 -999 -999 -999  
2001-05-10 10:40:05 51°12.155 2°47.688 -999 -999 -999  
2001-05-10 10:41:05 51°12.226 2°47.907 -999 -999 -999  
2001-05-10 10:42:05 51°12.29 2°48.131 -999 -999 -999  
2001-05-10 10:43:05 51°12.366 2°48.352 -999 -999 -999  
2001-05-10 10:44:05 51°12.436 2°48.583 -999 -999 -999  
2001-05-10 11:12:32 51°14.332 2°54.065 -999 -999 -999  
2001-05-10 11:13:32 51°14.334 2°54.11 -999 -999 -999  
2001-05-10 11:14:31 51°14.334 2°54.15 -999 -999 -999  
2001-05-10 11:15:31 51°14.336 2°54.19 -999 -999 -999  
2001-05-10 11:16:31 51°14.337 2°54.228 -999 -999 -999  
2001-05-10 11:17:31 51°14.338 2°54.267 -999 -999 -999  
2001-05-10 11:18:31 51°14.34 2°54.305 -999 -999 -999  
2001-05-10 11:19:31 51°14.343 2°54.342 -999 -999 -999  
2001-05-10 11:20:31 51°14.344 2°54.379 -999 -999 -999  
2001-05-10 11:21:31 51°14.359 2°54.488 -999 -999 -999  
2001-05-10 11:22:31 51°14.402 2°54.665 -999 -999 -999  
2001-05-10 11:23:31 51°14.446 2°54.878 -999 -999 -999  
2001-05-10 11:24:32 51°14.415 2°55.116 -999 -999 -999  
2001-05-10 11:25:32 51°14.321 2°55.315 -999 -999 -999  
2001-05-10 11:26:32 51°14.23 2°55.446 -999 -999 -999  
2001-05-10 11:27:34 51°14.123 2°55.517 -999 -999 -999